Aérodrome :
LOGIN :

S'inscrire | Disclaimer

   EN    FR    IT 

 










Légende :    VFR   VFR Marginal   IFR   IFR Intensif   IFR Très Intensif
Visi : 
Plafond : 
>= 8 km
>= 3000ft
5 à 8 km
1000 à 3000 ft
1500m à 5 km
500 à 1000 ft
800 à 1500m
200 à 500 ft
< 800m
< 200 ft
Symboles :   Orages  Brouillard  Fortes neiges  Fortes précipitations  Vent > 20 kt
SIGMETs :   Divers  Orages  Givrage  Turbulence  Onde Orograph.  Cendres Volcan.







- Altitude de l'aérodrome : 616 ft
- Code IATA : PUF
- Voir les cartes d'approche


LFBP - Pau

DERNIER METAR :
  • 260700Z AUTO 11003KT 9999 FEW100 BKN190 BKN220 05/03 Q1015 NOSIG

METARs EXPIRÉS :
  • 260630Z AUTO VRB02KT CAVOK 04/02 Q1015 NOSIG
  • 260600Z AUTO 13007KT 9999 FEW094 OVC170 05/03 Q1014 NOSIG
  • 260530Z AUTO 15004KT 9999 FEW094 BKN250 04/02 Q1014 NOSIG
  • 260500Z AUTO 12003KT 080V160 CAVOK 04/03 Q1014 TEMPO 4000 BR
  • 260430Z AUTO 10003KT 050V160 CAVOK 04/03 Q1014 TEMPO 4000 BR

TAF TAF LFBP
Valide du 26 à 06h jusqu'au 27 à 06h UTC


260500Z 2606/2706 12005KT CAVOK
TEMPO 2610/2617 SCT040
BECMG 2611/2613 09010KT
BECMG 2620/2622 12005KT
Pas de NOTAMs connus pour ce terrain.
1 SIGMET publié pour la FIR Bordeaux (LFBB) :
 
Turbulence forte
LFBB SIGMET 1 VALID 260600/261000 LFPW
LFBB BORDEAUX FIR/UIR SEV TURB FCST WI N4500 W00145 - N4600 W00130 - N4515 E00245 - N4415 E00245 FL160/270 MOV NE 10KT INTSF=



MET'MAP, la Météo Aéronautique d'un coup d'oeil ! - Copyright ORBIFLY Décembre 2007 - Disclaimer

ORBIFLY MET'MAP TEAM :

Programmation & Développement : Alexandra Zaïnal
Conception & Développement : Baudouin d'Aumeries
Co-Programmation & Développement : Marc-Olivier Méhu
Soutien technique & logistique : Manuel Goepfert

Contact : metmap@orbifly.com




SOURCES & CREDITS :

   NOAA